Time,TemperatureF,DewpointF,PressureIn,WindDirection,WindDirectionDegrees,WindSpeedMPH,WindSpeedGustMPH,Humidity,HourlyPrecipIn,Conditions,Clouds,dailyrainin,SoftwareType,DateUTC
2013-01-26 00:03:00,24.0,23.0,-100.00,NNE,25,3.0,6.0,91,0.00,,,-99.99,,2013-01-26 05:03:00,
2013-01-26 00:12:00,24.0,23.0,-100.00,NE,49,2.0,6.0,90,0.00,,,-99.99,,2013-01-26 05:12:00,
2013-01-26 00:23:00,24.0,23.0,-100.00,NNE,12,2.0,6.0,90,0.00,,,-99.99,,2013-01-26 05:23:00,
2013-01-26 00:33:00,24.0,23.0,-100.00,North,350,1.0,6.0,91,0.00,,,-99.99,,2013-01-26 05:33:00,
2013-01-26 00:42:00,23.0,21.0,-100.00,NE,46,1.0,6.0,91,0.00,,,-99.99,,2013-01-26 05:42:00,
2013-01-26 00:52:00,24.0,23.0,-100.00,NE,42,1.0,6.0,90,0.00,,,-99.99,,2013-01-26 05:52:00,
2013-01-26 01:03:00,24.0,23.0,-100.00,East,84,2.0,6.0,90,0.00,,,-99.99,,2013-01-26 06:03:00,
2013-01-26 01:12:00,24.0,23.0,-100.00,NE,35,2.0,6.0,91,0.00,,,-99.99,,2013-01-26 06:12:00,
2013-01-26 01:21:00,24.0,23.0,-100.00,NNE,22,2.0,6.0,91,0.00,,,-99.99,,2013-01-26 06:21:00,
2013-01-26 01:32:00,24.0,23.0,-100.00,ENE,66,1.0,6.0,91,0.00,,,-99.99,,2013-01-26 06:32:00,
2013-01-26 01:42:00,25.0,23.0,-100.00,ENE,77,1.0,6.0,91,0.00,,,-99.99,,2013-01-26 06:42:00,
2013-01-26 01:52:00,25.0,23.0,-100.00,ESE,103,0.0,6.0,91,0.00,,,-99.99,,2013-01-26 06:52:00,
2013-01-26 02:02:00,24.0,23.0,-100.00,SE,128,0.0,6.0,91,0.00,,,-99.99,,2013-01-26 07:02:00,
2013-01-26 02:12:00,25.0,23.0,-100.00,ESE,117,0.0,6.0,91,0.00,,,-99.99,,2013-01-26 07:12:00,
2013-01-26 02:22:00,25.0,23.0,-100.00,East,80,0.0,6.0,93,0.00,,,-99.99,,2013-01-26 07:22:00,
2013-01-26 02:33:00,24.0,23.0,-100.00,NNE,32,1.0,6.0,93,0.00,,,-99.99,,2013-01-26 07:33:00,
2013-01-26 02:42:00,25.0,25.0,-100.00,ENE,77,1.0,6.0,93,0.00,,,-99.99,,2013-01-26 07:42:00,
2013-01-26 02:51:00,25.0,23.0,-100.00,East,83,1.0,6.0,93,0.00,,,-99.99,,2013-01-26 07:51:00,
2013-01-26 03:02:00,25.0,25.0,-100.00,NNE,33,1.0,6.0,93,0.00,,,-99.99,,2013-01-26 08:02:00,
2013-01-26 03:11:00,25.0,25.0,-100.00,East,80,2.0,6.0,93,0.00,,,-99.99,,2013-01-26 08:11:00,
2013-01-26 03:22:00,26.0,25.0,-100.00,East,84,0.0,6.0,91,0.00,,,-99.99,,2013-01-26 08:22:00,
2013-01-26 03:32:00,26.0,25.0,-100.00,NE,55,2.0,6.0,93,0.00,,,-99.99,,2013-01-26 08:32:00,
2013-01-26 03:42:00,26.0,25.0,-100.00,NNW,345,2.0,6.0,91,0.00,,,-99.99,,2013-01-26 08:42:00,
2013-01-26 03:53:00,26.0,25.0,-100.00,NNE,16,2.0,6.0,93,0.00,,,-99.99,,2013-01-26 08:53:00,
2013-01-26 04:02:00,26.0,25.0,-100.00,ENE,57,2.0,6.0,91,0.00,,,-99.99,,2013-01-26 09:02:00,
2013-01-26 04:11:00,25.0,23.0,-100.00,NNE,22,2.0,6.0,91,0.00,,,-99.99,,2013-01-26 09:11:00,
2013-01-26 04:22:00,25.0,25.0,-100.00,NE,40,2.0,6.0,91,0.00,,,-99.99,,2013-01-26 09:22:00,
2013-01-26 04:32:00,23.0,21.0,-100.00,NNE,31,3.0,6.0,90,0.00,,,-99.99,,2013-01-26 09:32:00,
2013-01-26 04:42:00,24.0,23.0,-100.00,NE,46,4.0,6.0,93,0.00,,,-99.99,,2013-01-26 09:42:00,
2013-01-26 04:51:00,26.0,25.0,-100.00,NNE,31,3.0,6.0,91,0.00,,,-99.99,,2013-01-26 09:51:00,
2013-01-26 05:01:00,26.0,25.0,-100.00,NNE,22,2.0,2.0,93,0.00,,,-99.99,,2013-01-26 10:01:00,
2013-01-26 05:12:00,26.0,25.0,-100.00,ENE,60,1.0,2.0,93,0.00,,,-99.99,,2013-01-26 10:12:00,
2013-01-26 05:21:00,26.0,25.0,-100.00,East,86,1.0,2.0,93,0.00,,,-99.99,,2013-01-26 10:21:00,
2013-01-26 05:32:00,26.0,25.0,-100.00,ENE,63,0.0,2.0,93,0.00,,,-99.99,,2013-01-26 10:32:00,
2013-01-26 05:42:00,26.0,25.0,-100.00,ENE,70,0.0,2.0,93,0.00,,,-99.99,,2013-01-26 10:42:00,
2013-01-26 05:52:00,26.0,25.0,-100.00,ENE,77,0.0,2.0,93,0.00,,,-99.99,,2013-01-26 10:52:00,
2013-01-26 06:01:00,27.0,27.0,-100.00,ENE,67,0.0,2.0,93,0.00,,,-99.99,,2013-01-26 11:01:00,
2013-01-26 06:32:00,26.0,25.0,-100.00,SW,221,0.0,2.0,93,0.00,,,-99.99,,2013-01-26 11:32:00,
2013-01-26 06:42:00,26.0,25.0,-100.00,WSW,249,0.0,2.0,94,0.00,,,-99.99,,2013-01-26 11:42:00,
2013-01-26 06:52:00,26.0,25.0,-100.00,WSW,244,0.0,2.0,95,0.00,,,-99.99,,2013-01-26 11:52:00,
2013-01-26 07:02:00,27.0,27.0,-100.00,South,190,0.0,2.0,94,0.00,,,-99.99,,2013-01-26 12:02:00,
2013-01-26 07:12:00,26.0,25.0,-100.00,SE,144,0.0,2.0,94,0.00,,,-99.99,,2013-01-26 12:12:00,
2013-01-26 07:33:00,27.0,27.0,-100.00,SSE,160,0.0,2.0,95,0.00,,,-99.99,,2013-01-26 12:33:00,
2013-01-26 07:42:00,27.0,27.0,-100.00,NE,45,0.0,2.0,95,0.00,,,-99.99,,2013-01-26 12:42:00,
2013-01-26 07:52:00,27.0,27.0,-100.00,South,180,0.0,2.0,94,0.00,,,-99.99,,2013-01-26 12:52:00,
2013-01-26 08:33:00,27.0,27.0,-100.00,ENE,69,0.0,2.0,97,0.00,,,-99.99,,2013-01-26 13:33:00,
2013-01-26 08:52:00,27.0,27.0,-100.00,South,187,0.0,2.0,95,0.00,,,-99.99,,2013-01-26 13:52:00,
2013-01-26 09:03:00,27.0,27.0,-100.00,East,94,0.0,2.0,97,0.00,,,-99.99,,2013-01-26 14:03:00,
2013-01-26 09:12:00,27.0,27.0,-100.00,ENE,76,1.0,2.0,97,0.00,,,-99.99,,2013-01-26 14:12:00,
2013-01-26 09:22:00,28.0,28.0,-100.00,NNE,12,1.0,2.0,95,0.00,,,-99.99,,2013-01-26 14:22:00,
2013-01-26 09:32:00,28.0,28.0,-100.00,NE,56,0.0,2.0,95,0.00,,,-99.99,,2013-01-26 14:32:00,
2013-01-26 09:43:00,28.0,28.0,-100.00,East,87,0.0,2.0,95,0.00,,,-99.99,,2013-01-26 14:43:00,
2013-01-26 09:52:00,28.0,28.0,-100.00,NE,48,2.0,2.0,95,0.00,,,-99.99,,2013-01-26 14:52:00,
2013-01-26 10:03:00,28.0,27.0,-100.00,NNE,26,2.0,2.0,95,0.00,,,-99.99,,2013-01-26 15:03:00,
2013-01-26 10:12:00,29.0,28.0,-100.00,ENE,62,2.0,2.0,95,0.00,,,-99.99,,2013-01-26 15:12:00,
2013-01-26 10:22:00,26.0,25.0,-100.00,ENE,62,1.0,2.0,93,0.00,,,-99.99,,2013-01-26 15:22:00,
2013-01-26 10:33:00,26.0,25.0,-100.00,NE,40,2.0,2.0,91,0.00,,,-99.99,,2013-01-26 15:33:00,
2013-01-26 10:43:00,27.0,25.0,-100.00,ENE,72,2.0,2.0,91,0.00,,,-99.99,,2013-01-26 15:43:00,
2013-01-26 10:52:00,26.0,25.0,-100.00,East,93,2.0,2.0,90,0.00,,,-99.99,,2013-01-26 15:52:00,
2013-01-26 11:02:00,29.0,28.0,-100.00,ENE,64,2.0,2.0,91,0.00,,,-99.99,,2013-01-26 16:02:00,
2013-01-26 11:12:00,31.0,30.0,-100.00,ENE,69,3.0,4.0,91,0.00,,,-99.99,,2013-01-26 16:12:00,
2013-01-26 11:22:00,28.0,25.0,-100.00,East,88,4.0,4.0,88,0.00,,,-99.99,,2013-01-26 16:22:00,
2013-01-26 11:33:00,28.0,25.0,-100.00,ENE,57,5.0,6.0,88,0.00,,,-99.99,,2013-01-26 16:33:00,
2013-01-26 11:43:00,31.0,28.0,-100.00,East,98,3.0,6.0,88,0.00,,,-99.99,,2013-01-26 16:43:00,
2013-01-26 11:53:00,32.0,28.0,-100.00,East,86,6.0,8.0,86,0.00,,,-99.99,,2013-01-26 16:53:00,
2013-01-26 12:03:00,32.0,28.0,-100.00,ESE,121,4.0,8.0,84,0.00,,,-99.99,,2013-01-26 17:03:00,
2013-01-26 12:13:00,32.0,28.0,-100.00,ESE,114,2.0,8.0,81,0.00,,,-99.99,,2013-01-26 17:13:00,
2013-01-26 12:23:00,32.0,28.0,-100.00,ESE,120,3.0,8.0,80,0.00,,,-99.99,,2013-01-26 17:23:00,
2013-01-26 12:33:00,32.0,27.0,-100.00,SE,125,3.0,8.0,78,0.00,,,-99.99,,2013-01-26 17:33:00,
2013-01-26 12:42:00,32.0,27.0,-100.00,North,11,6.0,8.0,78,0.00,,,-99.99,,2013-01-26 17:42:00,
2013-01-26 12:52:00,30.0,25.0,-100.00,ESE,107,4.0,8.0,76,0.00,,,-99.99,,2013-01-26 17:52:00,
2013-01-26 13:03:00,30.0,23.0,-100.00,East,90,4.0,8.0,75,0.00,,,-99.99,,2013-01-26 18:03:00,
2013-01-26 13:12:00,31.0,25.0,-100.00,ENE,67,4.0,8.0,75,0.00,,,-99.99,,2013-01-26 18:12:00,
2013-01-26 13:22:00,29.0,23.0,-100.00,ENE,60,4.0,8.0,72,0.00,,,-99.99,,2013-01-26 18:22:00,
2013-01-26 13:33:00,32.0,25.0,-100.00,East,90,3.0,8.0,72,0.00,,,-99.99,,2013-01-26 18:33:00,
2013-01-26 13:42:00,29.0,21.0,-100.00,SE,124,4.0,8.0,71,0.00,,,-99.99,,2013-01-26 18:42:00,
2013-01-26 13:52:00,32.0,25.0,-100.00,East,93,5.0,8.0,72,0.00,,,-99.99,,2013-01-26 18:52:00,
2013-01-26 14:03:00,29.0,21.0,-100.00,ESE,104,4.0,8.0,66,0.00,,,-99.99,,2013-01-26 19:03:00,
2013-01-26 14:12:00,30.0,21.0,-100.00,NE,56,3.0,8.0,67,0.00,,,-99.99,,2013-01-26 19:12:00,
2013-01-26 14:22:00,30.0,21.0,-100.00,East,87,3.0,8.0,66,0.00,,,-99.99,,2013-01-26 19:22:00,
2013-01-26 14:33:00,29.0,19.0,-100.00,ENE,77,5.0,8.0,63,0.00,,,-99.99,,2013-01-26 19:33:00,
2013-01-26 14:42:00,29.0,18.0,-100.00,SE,144,4.0,8.0,62,0.00,,,-99.99,,2013-01-26 19:42:00,
2013-01-26 14:52:00,29.0,18.0,-100.00,East,87,4.0,8.0,60,0.00,,,-99.99,,2013-01-26 19:52:00,
2013-01-26 15:02:00,29.0,19.0,-100.00,East,88,4.0,8.0,62,0.00,,,-99.99,,2013-01-26 20:02:00,
2013-01-26 15:11:00,32.0,21.0,-100.00,ENE,77,5.0,8.0,63,0.00,,,-99.99,,2013-01-26 20:11:00,
2013-01-26 15:22:00,29.0,18.0,-100.00,South,175,3.0,8.0,60,0.00,,,-99.99,,2013-01-26 20:22:00,
2013-01-26 15:32:00,29.0,19.0,-100.00,SE,139,2.0,8.0,63,0.00,,,-99.99,,2013-01-26 20:32:00,
2013-01-26 15:42:00,28.0,18.0,-100.00,SSE,149,5.0,8.0,63,0.00,,,-99.99,,2013-01-26 20:42:00,
2013-01-26 15:52:00,31.0,21.0,-100.00,ESE,120,6.0,8.0,64,0.00,,,-99.99,,2013-01-26 20:52:00,
2013-01-26 16:03:00,29.0,19.0,-100.00,East,97,4.0,8.0,64,0.00,,,-99.99,,2013-01-26 21:03:00,
2013-01-26 16:12:00,29.0,18.0,-100.00,SE,127,5.0,8.0,62,0.00,,,-99.99,,2013-01-26 21:12:00,
2013-01-26 16:23:00,29.0,18.0,-100.00,East,87,5.0,8.0,60,0.00,,,-99.99,,2013-01-26 21:23:00,
2013-01-26 16:32:00,29.0,18.0,-100.00,SSE,158,2.0,8.0,59,0.00,,,-99.99,,2013-01-26 21:32:00,
2013-01-26 16:42:00,31.0,21.0,-100.00,East,81,4.0,8.0,63,0.00,,,-99.99,,2013-01-26 21:42:00,
2013-01-26 16:52:00,28.0,16.0,-100.00,SE,134,2.0,8.0,59,0.00,,,-99.99,,2013-01-26 21:52:00,
2013-01-26 17:02:00,28.0,18.0,-100.00,East,90,2.0,8.0,60,0.00,,,-99.99,,2013-01-26 22:02:00,
2013-01-26 17:12:00,27.0,16.0,-100.00,ESE,122,2.0,8.0,59,0.00,,,-99.99,,2013-01-26 22:12:00,
2013-01-26 17:22:00,27.0,16.0,-100.00,East,86,3.0,8.0,58,0.00,,,-99.99,,2013-01-26 22:22:00,
2013-01-26 17:32:00,28.0,16.0,-100.00,SE,128,3.0,8.0,60,0.00,,,-99.99,,2013-01-26 22:32:00,
2013-01-26 17:42:00,27.0,16.0,-100.00,SE,136,2.0,8.0,62,0.00,,,-99.99,,2013-01-26 22:42:00,
2013-01-26 17:52:00,30.0,19.0,-100.00,SE,145,3.0,8.0,63,0.00,,,-99.99,,2013-01-26 22:52:00,
2013-01-26 18:02:00,27.0,16.0,-100.00,ESE,114,3.0,8.0,60,0.00,,,-99.99,,2013-01-26 23:02:00,
2013-01-26 18:12:00,26.0,16.0,-100.00,West,261,2.0,8.0,62,0.00,,,-99.99,,2013-01-26 23:12:00,
2013-01-26 18:22:00,26.0,16.0,-100.00,ESE,112,2.0,8.0,63,0.00,,,-99.99,,2013-01-26 23:22:00,
2013-01-26 18:32:00,29.0,19.0,-100.00,ENE,64,2.0,8.0,63,0.00,,,-99.99,,2013-01-26 23:32:00,
2013-01-26 18:42:00,29.0,19.0,-100.00,East,96,3.0,8.0,63,0.00,,,-99.99,,2013-01-26 23:42:00,
2013-01-26 18:52:00,29.0,19.0,-100.00,ESE,120,2.0,8.0,66,0.00,,,-99.99,,2013-01-26 23:52:00,
2013-01-26 19:02:00,29.0,19.0,-100.00,SE,144,2.0,8.0,66,0.00,,,-99.99,,2013-01-27 00:02:00,
2013-01-26 19:12:00,29.0,19.0,-100.00,SSE,156,2.0,8.0,66,0.00,,,-99.99,,2013-01-27 00:12:00,
2013-01-26 19:22:00,29.0,19.0,-100.00,ESE,122,2.0,8.0,66,0.00,,,-99.99,,2013-01-27 00:22:00,
2013-01-26 19:32:00,29.0,21.0,-100.00,ESE,112,2.0,8.0,67,0.00,,,-99.99,,2013-01-27 00:32:00,
2013-01-26 19:42:00,26.0,18.0,-100.00,ESE,115,1.0,8.0,67,0.00,,,-99.99,,2013-01-27 00:42:00,
2013-01-26 19:51:00,29.0,21.0,-100.00,ESE,108,1.0,8.0,69,0.00,,,-99.99,,2013-01-27 00:51:00,
2013-01-26 20:01:00,26.0,18.0,-100.00,South,175,1.0,8.0,68,0.00,,,-99.99,,2013-01-27 01:01:00,
2013-01-26 20:11:00,28.0,21.0,-100.00,ESE,110,1.0,8.0,71,0.00,,,-99.99,,2013-01-27 01:11:00,
2013-01-26 20:22:00,29.0,21.0,-100.00,SE,128,1.0,8.0,72,0.00,,,-99.99,,2013-01-27 01:22:00,
2013-01-26 20:32:00,29.0,21.0,-100.00,SE,131,1.0,8.0,72,0.00,,,-99.99,,2013-01-27 01:32:00,
2013-01-26 20:42:00,29.0,21.0,-100.00,ESE,117,1.0,8.0,72,0.00,,,-99.99,,2013-01-27 01:42:00,
2013-01-26 20:52:00,26.0,18.0,-100.00,ESE,117,2.0,8.0,71,0.00,,,-99.99,,2013-01-27 01:52:00,
2013-01-26 21:01:00,25.0,18.0,-100.00,East,90,1.0,8.0,71,0.00,,,-99.99,,2013-01-27 02:01:00,
2013-01-26 21:12:00,25.0,18.0,-100.00,ESE,120,1.0,8.0,72,0.00,,,-99.99,,2013-01-27 02:12:00,
2013-01-26 21:22:00,25.0,18.0,-100.00,East,96,1.0,8.0,72,0.00,,,-99.99,,2013-01-27 02:22:00,
2013-01-26 21:32:00,24.0,18.0,-100.00,South,173,1.0,8.0,73,0.00,,,-99.99,,2013-01-27 02:32:00,
2013-01-26 21:42:00,28.0,23.0,-100.00,ESE,122,2.0,8.0,76,0.00,,,-99.99,,2013-01-27 02:42:00,
2013-01-26 21:52:00,28.0,23.0,-100.00,ESE,108,2.0,8.0,77,0.00,,,-99.99,,2013-01-27 02:52:00,
2013-01-26 22:02:00,24.0,19.0,-100.00,SSW,203,1.0,8.0,76,0.00,,,-99.99,,2013-01-27 03:02:00,
2013-01-26 22:11:00,24.0,19.0,-100.00,SE,125,1.0,8.0,76,0.00,,,-99.99,,2013-01-27 03:11:00,
2013-01-26 22:21:00,24.0,18.0,-100.00,ENE,76,1.0,8.0,76,0.00,,,-99.99,,2013-01-27 03:21:00,
2013-01-26 22:32:00,24.0,18.0,-100.00,ESE,118,1.0,8.0,76,0.00,,,-99.99,,2013-01-27 03:32:00,
2013-01-26 22:42:00,24.0,18.0,-100.00,SE,134,0.0,8.0,76,0.00,,,-99.99,,2013-01-27 03:42:00,
2013-01-26 22:51:00,24.0,18.0,-100.00,East,87,1.0,8.0,76,0.00,,,-99.99,,2013-01-27 03:51:00,
2013-01-26 23:02:00,23.0,18.0,-100.00,ESE,103,0.0,8.0,76,0.00,,,-99.99,,2013-01-27 04:02:00,
2013-01-26 23:12:00,23.0,18.0,-100.00,East,83,1.0,8.0,76,0.00,,,-99.99,,2013-01-27 04:12:00,
2013-01-26 23:22:00,22.0,18.0,-100.00,SSW,194,0.0,8.0,77,0.00,,,-99.99,,2013-01-27 04:22:00,
2013-01-26 23:32:00,20.0,16.0,-100.00,SSE,155,1.0,8.0,78,0.00,,,-99.99,,2013-01-27 04:32:00,
2013-01-26 23:42:00,19.0,14.0,-100.00,SE,135,1.0,8.0,80,0.00,,,-99.99,,2013-01-27 04:42:00,
2013-01-26 23:52:00,18.0,14.0,-100.00,SE,141,0.0,8.0,81,0.00,,,-99.99,,2013-01-27 04:52:00,